< Typhoon 199009 1990 Season Typhoon 199011 >
Typhoon 199010 (VERNON)
General InformationTrack Information on Google MapsDetailed Wind InformationList of All Images || NewsDisaster Info.ResourceGoogle EarthGE AnimationAtom FeedGeoJSON
Detalied Best Track (Time Zone = UTC)
Year Month Day Hour Lat. Long. Pressure (hPa) Wind (kt) Class Image Chart
1990 7 28 00 17.3 134.4 1002 0 2 Image Chart
1990 7 28 06 17.4 134.6 1002 0 2 Image Chart
1990 7 28 12 17.5 135.0 1002 0 2 Image Chart
1990 7 28 18 17.6 135.2 1000 0 2 Image Chart
1990 7 29 00 17.6 135.4 1000 0 2 Image Chart
1990 7 29 06 18.1 136.3 998 35 3 Image Chart
1990 7 29 12 18.5 136.7 996 40 3 Image Chart
1990 7 29 18 18.8 136.9 996 40 3 Image Chart
1990 7 30 00 19.2 137.0 990 45 3 Image Chart
1990 7 30 06 19.5 137.0 985 50 4 Image Chart
1990 7 30 12 19.7 137.3 980 55 4 Image Chart
1990 7 30 18 20.0 137.8 980 55 4 Image Chart
1990 7 31 00 20.5 138.4 975 60 4 Image Chart
1990 7 31 06 21.2 138.8 965 70 5 Image Chart
1990 7 31 12 21.9 139.1 960 70 5 Image Chart
1990 7 31 18 22.8 139.1 960 70 5 Image Chart
1990 8 1 00 23.8 139.2 955 75 5 Image Chart
1990 8 1 06 24.7 139.2 955 75 5 Image Chart
1990 8 1 12 25.7 139.5 955 75 5 Image Chart
1990 8 1 18 26.5 139.4 960 70 5 Image Chart
1990 8 2 00 27.4 139.2 965 70 5 Image Chart
1990 8 2 06 28.4 139.3 970 65 5 Image Chart
1990 8 2 12 29.1 139.5 970 65 5 Image Chart
1990 8 2 18 29.9 139.6 970 65 5 Image Chart
1990 8 3 00 30.7 139.7 970 65 5 Image Chart
1990 8 3 06 31.5 139.9 965 70 5 Image Chart
1990 8 3 12 31.9 140.1 965 70 5 Image Chart
1990 8 3 18 32.5 140.2 965 70 5 Image Chart
1990 8 4 00 32.7 140.5 965 70 5 Image Chart
1990 8 4 06 33.0 140.8 970 65 5 Image Chart
1990 8 4 12 33.2 141.5 975 60 4 Image Chart
1990 8 4 18 33.4 142.2 980 55 4 Image Chart
1990 8 5 00 33.6 142.8 980 55 4 Image Chart
1990 8 5 06 33.7 143.2 980 55 4 Image Chart
1990 8 5 12 33.7 143.7 980 55 4 Image Chart
1990 8 5 18 33.7 144.0 985 50 4 Image Chart
1990 8 6 00 33.8 144.4 985 50 4 Image Chart
1990 8 6 06 33.8 145.0 985 50 4 Image Chart
1990 8 6 12 33.9 145.5 985 50 4 Image Chart
1990 8 6 18 34.2 146.0 985 50 4 Image Chart
1990 8 7 00 34.7 146.5 985 50 4 Image Chart
1990 8 7 06 35.3 147.0 985 50 4 Image Chart
1990 8 7 12 35.6 147.3 990 45 3 Image Chart
1990 8 7 18 36.2 147.9 990 45 3 Image Chart
1990 8 8 00 37.0 149.7 990 45 3 Image Chart
1990 8 8 06 37.7 151.6 990 45 3 Image Chart
1990 8 8 12 38.0 153.8 990 45 3 Image Chart
1990 8 8 18 38.5 155.8 990 45 3 Image Chart
1990 8 9 00 38.9 158.1 990 45 3 Image Chart
1990 8 9 06 39.2 160.7 990 45 3 Image Chart
1990 8 9 12 40.5 163.0 992 40 3 Image Chart
1990 8 9 18 42.0 166.0 996 0 6 Image Chart
1990 8 10 00 44.0 170.0 996 0 6 Image Chart
1990 8 10 06 46.0 174.0 992 0 6 Image Chart
1990 8 10 12 49.0 179.0 988 0 6 Image Chart
1990 8 10 18 54.0 182.0 984 0 6 Image Chart
Japan Meteorological Agency Best Track Data | Correction Date : 1992-10-21
< Typhoon 199009 1990 Season Typhoon 199011 >

Help